sensor_id;sensor_type;location;lat;lon;timestamp;temperature;humidity
68842;SHT35;55849;48.482;2.332;2023-02-26T11:07:19;6.65;49.32
68842;SHT35;55849;48.482;2.332;2023-02-26T11:10:23;6.81;49.35
68842;SHT35;55849;48.482;2.332;2023-02-26T11:13:26;6.95;50.13
68842;SHT35;55849;48.482;2.332;2023-02-26T11:16:29;7.10;49.88
68842;SHT35;55849;48.482;2.332;2023-02-26T11:19:35;7.26;49.72
68842;SHT35;55849;48.482;2.332;2023-02-26T11:22:38;7.38;49.03
68842;SHT35;55849;48.482;2.332;2023-02-26T11:25:41;7.52;48.70
68842;SHT35;55849;48.482;2.332;2023-02-26T11:28:44;7.62;48.79
68842;SHT35;55849;48.482;2.332;2023-02-26T11:31:49;7.74;47.76
68842;SHT35;55849;48.482;2.332;2023-02-26T11:34:53;7.85;48.00
68842;SHT35;55849;48.482;2.332;2023-02-26T11:37:59;7.93;46.51
68842;SHT35;55849;48.482;2.332;2023-02-26T11:41:01;7.97;46.59
68842;SHT35;55849;48.482;2.332;2023-02-26T11:44:06;8.03;46.21
68842;SHT35;55849;48.482;2.332;2023-02-26T11:47:12;8.10;46.51
68842;SHT35;55849;48.482;2.332;2023-02-26T11:50:18;8.21;45.63
68842;SHT35;55849;48.482;2.332;2023-02-26T11:53:30;8.26;44.57
68842;SHT35;55849;48.482;2.332;2023-02-26T11:56:38;8.34;45.01
68842;SHT35;55849;48.482;2.332;2023-02-26T11:59:44;8.42;45.14
68842;SHT35;55849;48.482;2.332;2023-02-26T12:02:48;8.52;45.85
68842;SHT35;55849;48.482;2.332;2023-02-26T12:05:50;8.62;46.31
68842;SHT35;55849;48.482;2.332;2023-02-26T12:08:54;8.72;45.44
68842;SHT35;55849;48.482;2.332;2023-02-26T12:12:09;8.84;45.53
68842;SHT35;55849;48.482;2.332;2023-02-26T12:15:21;8.96;44.12
68842;SHT35;55849;48.482;2.332;2023-02-26T12:18:41;9.03;44.35
68842;SHT35;55849;48.482;2.332;2023-02-26T12:22:06;9.14;44.73
68842;SHT35;55849;48.482;2.332;2023-02-26T12:25:22;9.24;43.70
68842;SHT35;55849;48.482;2.332;2023-02-26T12:28:46;9.35;44.21
68842;SHT35;55849;48.482;2.332;2023-02-26T12:32:02;9.46;43.81
68842;SHT35;55849;48.482;2.332;2023-02-26T12:35:35;9.65;43.55
68842;SHT35;55849;48.482;2.332;2023-02-26T12:38:46;9.80;43.48
68842;SHT35;55849;48.482;2.332;2023-02-26T12:41:59;9.97;43.82
68842;SHT35;55849;48.482;2.332;2023-02-26T12:45:20;10.22;42.36
68842;SHT35;55849;48.482;2.332;2023-02-26T12:48:43;10.45;42.18
68842;SHT35;55849;48.482;2.332;2023-02-26T12:51:58;10.66;41.84
68842;SHT35;55849;48.482;2.332;2023-02-26T12:55:13;10.90;41.46
68842;SHT35;55849;48.482;2.332;2023-02-26T12:58:32;11.14;40.95
68842;SHT35;55849;48.482;2.332;2023-02-26T13:02:17;11.46;41.61
68842;SHT35;55849;48.482;2.332;2023-02-26T13:05:40;11.80;40.16
68842;SHT35;55849;48.482;2.332;2023-02-26T13:08:53;12.04;39.65
68842;SHT35;55849;48.482;2.332;2023-02-26T13:12:04;12.11;38.98
68842;SHT35;55849;48.482;2.332;2023-02-26T13:15:29;12.18;38.45
68842;SHT35;55849;48.482;2.332;2023-02-26T13:18:40;12.24;38.34
68842;SHT35;55849;48.482;2.332;2023-02-26T13:21:46;12.37;38.12
68842;SHT35;55849;48.482;2.332;2023-02-26T13:24:53;12.53;37.74
68842;SHT35;55849;48.482;2.332;2023-02-26T13:27:58;12.73;38.09
68842;SHT35;55849;48.482;2.332;2023-02-26T13:31:04;12.91;38.40
68842;SHT35;55849;48.482;2.332;2023-02-26T13:34:12;13.20;38.50
68842;SHT35;55849;48.482;2.332;2023-02-26T13:37:22;13.26;37.02
68842;SHT35;55849;48.482;2.332;2023-02-26T13:40:44;13.15;36.93
68842;SHT35;55849;48.482;2.332;2023-02-26T13:44:00;13.10;37.60
68842;SHT35;55849;48.482;2.332;2023-02-26T13:47:16;13.23;37.19
68842;SHT35;55849;48.482;2.332;2023-02-26T13:50:38;13.27;36.49
68842;SHT35;55849;48.482;2.332;2023-02-26T13:53:50;13.20;36.43
68842;SHT35;55849;48.482;2.332;2023-02-26T13:56:54;13.09;36.78
68842;SHT35;55849;48.482;2.332;2023-02-26T14:00:01;13.15;37.43
68842;SHT35;55849;48.482;2.332;2023-02-26T14:03:29;13.23;36.32
68842;SHT35;55849;48.482;2.332;2023-02-26T14:06:38;13.24;35.69
68842;SHT35;55849;48.482;2.332;2023-02-26T14:09:45;13.32;35.90
68842;SHT35;55849;48.482;2.332;2023-02-26T14:13:06;13.50;35.71
68842;SHT35;55849;48.482;2.332;2023-02-26T14:16:11;13.71;35.52
68842;SHT35;55849;48.482;2.332;2023-02-26T14:19:26;13.92;35.37
68842;SHT35;55849;48.482;2.332;2023-02-26T14:22:33;14.16;35.32
68842;SHT35;55849;48.482;2.332;2023-02-26T14:25:37;14.40;35.09
68842;SHT35;55849;48.482;2.332;2023-02-26T14:28:43;14.63;34.32
68842;SHT35;55849;48.482;2.332;2023-02-26T14:32:11;14.68;33.66
68842;SHT35;55849;48.482;2.332;2023-02-26T14:35:17;14.49;33.59
68842;SHT35;55849;48.482;2.332;2023-02-26T14:38:22;14.31;34.06
68842;SHT35;55849;48.482;2.332;2023-02-26T14:41:29;14.33;34.37
68842;SHT35;55849;48.482;2.332;2023-02-26T14:44:36;14.42;33.76
68842;SHT35;55849;48.482;2.332;2023-02-26T14:47:39;14.63;33.01
68842;SHT35;55849;48.482;2.332;2023-02-26T14:50:49;14.76;33.30
68842;SHT35;55849;48.482;2.332;2023-02-26T14:54:05;14.93;32.91
68842;SHT35;55849;48.482;2.332;2023-02-26T14:57:17;15.13;32.73
68842;SHT35;55849;48.482;2.332;2023-02-26T15:00:29;15.24;32.42
68842;SHT35;55849;48.482;2.332;2023-02-26T15:03:53;15.38;32.59
68842;SHT35;55849;48.482;2.332;2023-02-26T15:07:14;15.50;32.88
68842;SHT35;55849;48.482;2.332;2023-02-26T15:10:31;15.52;32.16
68842;SHT35;55849;48.482;2.332;2023-02-26T15:13:50;15.51;31.20
68842;SHT35;55849;48.482;2.332;2023-02-26T15:17:04;15.40;31.77
68842;SHT35;55849;48.482;2.332;2023-02-26T15:20:17;15.44;31.54
68842;SHT35;55849;48.482;2.332;2023-02-26T15:23:33;15.52;31.29
68842;SHT35;55849;48.482;2.332;2023-02-26T15:26:43;15.65;31.03
68842;SHT35;55849;48.482;2.332;2023-02-26T15:29:48;15.78;30.74
68842;SHT35;55849;48.482;2.332;2023-02-26T15:32:56;15.86;31.06
68842;SHT35;55849;48.482;2.332;2023-02-26T15:35:59;15.90;30.48
68842;SHT35;55849;48.482;2.332;2023-02-26T15:39:06;15.93;30.76
68842;SHT35;55849;48.482;2.332;2023-02-26T15:42:09;15.99;30.52
68842;SHT35;55849;48.482;2.332;2023-02-26T15:45:14;15.99;30.65
68842;SHT35;55849;48.482;2.332;2023-02-26T15:48:21;16.02;30.06
68842;SHT35;55849;48.482;2.332;2023-02-26T15:51:25;16.04;30.07
68842;SHT35;55849;48.482;2.332;2023-02-26T15:54:32;16.09;29.99
68842;SHT35;55849;48.482;2.332;2023-02-26T15:57:35;16.13;29.91
68842;SHT35;55849;48.482;2.332;2023-02-26T16:00:37;15.96;29.77
68842;SHT35;55849;48.482;2.332;2023-02-26T16:03:38;15.82;29.48
68842;SHT35;55849;48.482;2.332;2023-02-26T16:06:42;15.75;30.32
68842;SHT35;55849;48.482;2.332;2023-02-26T16:09:48;15.72;29.83
68842;SHT35;55849;48.482;2.332;2023-02-26T16:12:50;15.73;30.04
68842;SHT35;55849;48.482;2.332;2023-02-26T16:15:58;15.72;29.89
68842;SHT35;55849;48.482;2.332;2023-02-26T16:19:00;15.55;29.46
68842;SHT35;55849;48.482;2.332;2023-02-26T16:22:15;15.22;29.82
68842;SHT35;55849;48.482;2.332;2023-02-26T16:25:23;14.86;29.95
68842;SHT35;55849;48.482;2.332;2023-02-26T16:28:28;14.47;29.88
68842;SHT35;55849;48.482;2.332;2023-02-26T16:31:31;14.06;30.17
68842;SHT35;55849;48.482;2.332;2023-02-26T16:34:40;13.67;30.29
68842;SHT35;55849;48.482;2.332;2023-02-26T16:37:43;13.29;30.62
68842;SHT35;55849;48.482;2.332;2023-02-26T16:40:57;12.96;30.93
68842;SHT35;55849;48.482;2.332;2023-02-26T16:44:01;12.71;31.41
68842;SHT35;55849;48.482;2.332;2023-02-26T16:47:04;12.50;32.02
68842;SHT35;55849;48.482;2.332;2023-02-26T16:50:12;12.30;32.44
68842;SHT35;55849;48.482;2.332;2023-02-26T16:53:18;12.12;32.60
68842;SHT35;55849;48.482;2.332;2023-02-26T16:56:26;11.91;33.04
68842;SHT35;55849;48.482;2.332;2023-02-26T16:59:30;11.77;33.14
68842;SHT35;55849;48.482;2.332;2023-02-26T17:02:34;11.64;33.20
68842;SHT35;55849;48.482;2.332;2023-02-26T17:05:39;11.50;33.34
68842;SHT35;55849;48.482;2.332;2023-02-26T17:08:46;11.39;33.71
68842;SHT35;55849;48.482;2.332;2023-02-26T17:11:49;11.25;34.15
68842;SHT35;55849;48.482;2.332;2023-02-26T17:14:54;11.15;34.29
68842;SHT35;55849;48.482;2.332;2023-02-26T17:17:56;11.07;34.70
68842;SHT35;55849;48.482;2.332;2023-02-26T17:20:59;10.94;34.77
68842;SHT35;55849;48.482;2.332;2023-02-26T17:24:03;10.80;34.79
68842;SHT35;55849;48.482;2.332;2023-02-26T17:27:09;10.66;34.89
68842;SHT35;55849;48.482;2.332;2023-02-26T17:30:15;10.53;34.86
68842;SHT35;55849;48.482;2.332;2023-02-26T17:33:17;10.44;35.14
68842;SHT35;55849;48.482;2.332;2023-02-26T17:36:19;10.32;35.20
68842;SHT35;55849;48.482;2.332;2023-02-26T17:39:21;10.24;35.23
68842;SHT35;55849;48.482;2.332;2023-02-26T17:42:24;10.15;35.35
68842;SHT35;55849;48.482;2.332;2023-02-26T17:45:26;10.08;35.45
68842;SHT35;55849;48.482;2.332;2023-02-26T17:48:28;10.01;35.74
68842;SHT35;55849;48.482;2.332;2023-02-26T17:51:30;9.97;35.94
68842;SHT35;55849;48.482;2.332;2023-02-26T17:54:31;9.90;35.96
68842;SHT35;55849;48.482;2.332;2023-02-26T17:57:34;9.83;35.70
68842;SHT35;55849;48.482;2.332;2023-02-26T18:00:36;9.76;35.68
68842;SHT35;55849;48.482;2.332;2023-02-26T18:03:41;9.69;36.26
68842;SHT35;55849;48.482;2.332;2023-02-26T18:06:43;9.63;36.22
68842;SHT35;55849;48.482;2.332;2023-02-26T18:09:46;9.55;36.16
68842;SHT35;55849;48.482;2.332;2023-02-26T18:12:49;9.45;36.35
68842;SHT35;55849;48.482;2.332;2023-02-26T18:15:52;9.38;36.38
68842;SHT35;55849;48.482;2.332;2023-02-26T18:18:55;9.31;36.70
68842;SHT35;55849;48.482;2.332;2023-02-26T18:21:57;9.27;36.74
68842;SHT35;55849;48.482;2.332;2023-02-26T18:24:59;9.23;36.93
68842;SHT35;55849;48.482;2.332;2023-02-26T18:28:02;9.15;36.87
68842;SHT35;55849;48.482;2.332;2023-02-26T18:31:05;9.08;36.86
68842;SHT35;55849;48.482;2.332;2023-02-26T18:34:08;9.01;36.88
68842;SHT35;55849;48.482;2.332;2023-02-26T18:37:11;8.99;36.74
68842;SHT35;55849;48.482;2.332;2023-02-26T18:40:15;8.91;37.07
68842;SHT35;55849;48.482;2.332;2023-02-26T18:43:18;8.87;36.79
68842;SHT35;55849;48.482;2.332;2023-02-26T18:46:19;8.82;37.06
68842;SHT35;55849;48.482;2.332;2023-02-26T18:49:21;8.79;37.29
68842;SHT35;55849;48.482;2.332;2023-02-26T18:52:23;8.75;37.49
68842;SHT35;55849;48.482;2.332;2023-02-26T18:55:24;8.72;37.38
68842;SHT35;55849;48.482;2.332;2023-02-26T18:58:27;8.68;37.82
68842;SHT35;55849;48.482;2.332;2023-02-26T19:01:29;8.62;37.86
68842;SHT35;55849;48.482;2.332;2023-02-26T19:04:31;8.56;37.96
68842;SHT35;55849;48.482;2.332;2023-02-26T19:07:32;8.55;38.21
68842;SHT35;55849;48.482;2.332;2023-02-26T19:10:34;8.51;38.26
68842;SHT35;55849;48.482;2.332;2023-02-26T19:13:38;8.47;38.50
68842;SHT35;55849;48.482;2.332;2023-02-26T19:16:39;8.42;38.53
68842;SHT35;55849;48.482;2.332;2023-02-26T19:19:43;8.36;38.49
68842;SHT35;55849;48.482;2.332;2023-02-26T19:22:44;8.34;38.69
68842;SHT35;55849;48.482;2.332;2023-02-26T19:25:46;8.27;38.71
68842;SHT35;55849;48.482;2.332;2023-02-26T19:28:50;8.24;38.75
68842;SHT35;55849;48.482;2.332;2023-02-26T19:31:52;8.20;38.79
68842;SHT35;55849;48.482;2.332;2023-02-26T19:34:53;8.14;38.94
68842;SHT35;55849;48.482;2.332;2023-02-26T19:37:55;8.12;39.17
68842;SHT35;55849;48.482;2.332;2023-02-26T19:40:56;8.09;39.01
68842;SHT35;55849;48.482;2.332;2023-02-26T19:44:00;8.04;39.26
68842;SHT35;55849;48.482;2.332;2023-02-26T19:47:02;8.02;39.27
68842;SHT35;55849;48.482;2.332;2023-02-26T19:50:05;7.99;39.58
68842;SHT35;55849;48.482;2.332;2023-02-26T19:53:07;7.96;39.17
68842;SHT35;55849;48.482;2.332;2023-02-26T19:56:09;7.92;39.52
68842;SHT35;55849;48.482;2.332;2023-02-26T19:59:12;7.89;39.76
68842;SHT35;55849;48.482;2.332;2023-02-26T20:02:14;7.83;39.48
68842;SHT35;55849;48.482;2.332;2023-02-26T20:05:15;7.79;39.73
68842;SHT35;55849;48.482;2.332;2023-02-26T20:08:17;7.79;39.95
68842;SHT35;55849;48.482;2.332;2023-02-26T20:11:19;7.75;39.96
68842;SHT35;55849;48.482;2.332;2023-02-26T20:14:22;7.69;39.90
68842;SHT35;55849;48.482;2.332;2023-02-26T20:17:24;7.64;40.11
68842;SHT35;55849;48.482;2.332;2023-02-26T20:20:26;7.60;40.39
68842;SHT35;55849;48.482;2.332;2023-02-26T20:23:27;7.54;40.21
68842;SHT35;55849;48.482;2.332;2023-02-26T20:26:29;7.52;40.53
68842;SHT35;55849;48.482;2.332;2023-02-26T20:29:33;7.48;40.51
68842;SHT35;55849;48.482;2.332;2023-02-26T20:32:35;7.44;40.48
68842;SHT35;55849;48.482;2.332;2023-02-26T20:35:36;7.44;40.47
68842;SHT35;55849;48.482;2.332;2023-02-26T20:38:38;7.41;40.87
68842;SHT35;55849;48.482;2.332;2023-02-26T20:41:40;7.38;40.88
68842;SHT35;55849;48.482;2.332;2023-02-26T20:44:43;7.37;41.05
68842;SHT35;55849;48.482;2.332;2023-02-26T20:47:44;7.34;40.85
68842;SHT35;55849;48.482;2.332;2023-02-26T20:50:47;7.28;40.94
68842;SHT35;55849;48.482;2.332;2023-02-26T20:53:48;7.26;41.06
68842;SHT35;55849;48.482;2.332;2023-02-26T20:56:50;7.24;41.31
68842;SHT35;55849;48.482;2.332;2023-02-26T20:59:53;7.22;41.21
68842;SHT35;55849;48.482;2.332;2023-02-26T21:02:55;7.17;41.27
68842;SHT35;55849;48.482;2.332;2023-02-26T21:05:57;7.15;41.50
68842;SHT35;55849;48.482;2.332;2023-02-26T21:08:59;7.13;41.42
68842;SHT35;55849;48.482;2.332;2023-02-26T21:12:01;7.09;41.49
68842;SHT35;55849;48.482;2.332;2023-02-26T21:15:06;7.08;41.64
68842;SHT35;55849;48.482;2.332;2023-02-26T21:18:09;7.05;41.72
68842;SHT35;55849;48.482;2.332;2023-02-26T21:21:11;6.98;41.60
68842;SHT35;55849;48.482;2.332;2023-02-26T21:24:12;6.98;41.74
68842;SHT35;55849;48.482;2.332;2023-02-26T21:27:14;6.93;41.84
68842;SHT35;55849;48.482;2.332;2023-02-26T21:30:18;6.95;41.99
68842;SHT35;55849;48.482;2.332;2023-02-26T21:33:20;6.92;41.85
68842;SHT35;55849;48.482;2.332;2023-02-26T21:36:21;6.87;41.94
68842;SHT35;55849;48.482;2.332;2023-02-26T21:39:23;6.85;42.22
68842;SHT35;55849;48.482;2.332;2023-02-26T21:42:25;6.84;42.05
68842;SHT35;55849;48.482;2.332;2023-02-26T21:45:28;6.82;42.23
68842;SHT35;55849;48.482;2.332;2023-02-26T21:48:29;6.77;42.20
68842;SHT35;55849;48.482;2.332;2023-02-26T21:51:31;6.71;42.17
68842;SHT35;55849;48.482;2.332;2023-02-26T21:54:35;6.68;42.11
68842;SHT35;55849;48.482;2.332;2023-02-26T21:57:37;6.68;42.50
68842;SHT35;55849;48.482;2.332;2023-02-26T22:00:40;6.67;42.48
68842;SHT35;55849;48.482;2.332;2023-02-26T22:03:41;6.65;42.43
68842;SHT35;55849;48.482;2.332;2023-02-26T22:06:43;6.61;42.42
68842;SHT35;55849;48.482;2.332;2023-02-26T22:09:45;6.61;42.32
68842;SHT35;55849;48.482;2.332;2023-02-26T22:12:48;6.58;42.44
68842;SHT35;55849;48.482;2.332;2023-02-26T22:15:51;6.57;42.55
68842;SHT35;55849;48.482;2.332;2023-02-26T22:18:52;6.54;42.55
68842;SHT35;55849;48.482;2.332;2023-02-26T22:21:54;6.51;42.68
68842;SHT35;55849;48.482;2.332;2023-02-26T22:24:56;6.49;42.62
68842;SHT35;55849;48.482;2.332;2023-02-26T22:27:58;6.47;42.82
68842;SHT35;55849;48.482;2.332;2023-02-26T22:31:01;6.43;42.59
68842;SHT35;55849;48.482;2.332;2023-02-26T22:34:03;6.41;43.04
68842;SHT35;55849;48.482;2.332;2023-02-26T22:37:05;6.44;42.84
68842;SHT35;55849;48.482;2.332;2023-02-26T22:40:07;6.40;42.94
68842;SHT35;55849;48.482;2.332;2023-02-26T22:43:10;6.37;42.99
68842;SHT35;55849;48.482;2.332;2023-02-26T22:46:13;6.36;43.16
68842;SHT35;55849;48.482;2.332;2023-02-26T22:49:16;6.37;43.04
68842;SHT35;55849;48.482;2.332;2023-02-26T22:52:17;6.33;43.20
68842;SHT35;55849;48.482;2.332;2023-02-26T22:55:19;6.32;43.35
68842;SHT35;55849;48.482;2.332;2023-02-26T22:58:21;6.32;43.19
68842;SHT35;55849;48.482;2.332;2023-02-26T23:01:24;6.33;43.16
68842;SHT35;55849;48.482;2.332;2023-02-26T23:04:26;6.28;43.19
68842;SHT35;55849;48.482;2.332;2023-02-26T23:07:28;6.28;42.98
68842;SHT35;55849;48.482;2.332;2023-02-26T23:10:30;6.25;43.33
68842;SHT35;55849;48.482;2.332;2023-02-26T23:13:33;6.21;43.29
68842;SHT35;55849;48.482;2.332;2023-02-26T23:16:36;6.21;43.13
68842;SHT35;55849;48.482;2.332;2023-02-26T23:19:38;6.19;43.43
68842;SHT35;55849;48.482;2.332;2023-02-26T23:22:40;6.16;43.37
68842;SHT35;55849;48.482;2.332;2023-02-26T23:25:43;6.16;43.46
68842;SHT35;55849;48.482;2.332;2023-02-26T23:28:44;6.15;43.45
68842;SHT35;55849;48.482;2.332;2023-02-26T23:31:47;6.13;43.62
68842;SHT35;55849;48.482;2.332;2023-02-26T23:34:50;6.13;43.64
68842;SHT35;55849;48.482;2.332;2023-02-26T23:37:51;6.11;43.49
68842;SHT35;55849;48.482;2.332;2023-02-26T23:40:53;6.08;43.62
68842;SHT35;55849;48.482;2.332;2023-02-26T23:43:56;6.11;43.81
68842;SHT35;55849;48.482;2.332;2023-02-26T23:46:59;6.06;43.77
68842;SHT35;55849;48.482;2.332;2023-02-26T23:50:01;6.05;43.88
68842;SHT35;55849;48.482;2.332;2023-02-26T23:53:02;6.02;44.04
68842;SHT35;55849;48.482;2.332;2023-02-26T23:56:05;6.01;43.97
68842;SHT35;55849;48.482;2.332;2023-02-26T23:59:07;5.98;43.91
